Historyczne dane pomiarowe

Dodano dane terminowe – wersja testowa.

Dane z okresu 1951-2019

Wersja bazy: 1.34 [2019-03-16, lista zmian], aktualizacja planowana na 2019-04-15

Dane meteo z obszaru Polski uzyskane na podstawie danych udostępnionych przez Instytut Meteorologii i Gospodarki Wodnej – Państwowy Instytut Badawczy.

 

Wybierz Datę:    

       

TemperaturaWilgotnośćWiatrCiśnienieOpadyŚniegCzas trwania zjawisk
 Stacja t tx tn tng RH VA  wxwx mslp ppp RRR   cm mm wxwxwxwxwxwxwx
1983-08-14 13.1 16.1 10.6- 77.5- 6.3 2.7---- 0.0------------
1983-08-13 14.1 20.1 11.6- 88.5- 7.3 1.7---- 14.2------------
1983-08-12 17.2 22.1 15.0- 92.5- 7.0 0.0---- 6.2------------
1983-08-11 17.2 20.1 14.4- 93.3- 8.0 0.7---- 4.2------------
1983-08-10 17.2 23.1 13.5- 88.0- 7.7 1.0---- 1.7------------
1983-08-09 17.2 23.7 13.3- 89.5- 7.7 0.0---- 0.0------------
1983-08-08 17.1 21.6 13.2- 90.8- 8.0 0.3---- 1.1------------
1983-08-07 16.4 20.7 13.6- 91.3- 8.0 0.0---- 13.2------------
1983-08-06 13.3 19.9 8.0- 82.5- 7.3 1.0---- 0.0------------
1983-08-05 12.6 15.3 10.0- 83.0- 8.0 0.0---- 0.0------------
1983-08-04 13.3 23.1 11.5- 88.5- 8.0 0.7---- 4.0------------
1983-08-03 20.7 25.3 13.2- 79.0- 3.7 0.7---- 9.2------------
1983-08-02 20.8 29.9 9.0- 72.8- 0.3 0.0---- 0.0------------
1983-08-01 18.0 26.6 8.5- 72.3- 0.0 0.0---- 0.0------------
1983-07-31 17.2 21.9 12.5- 79.3- 3.7 0.0---- 0.0------------
1983-07-30 16.0 20.3 11.5- 89.5- 7.0 1.0---- 0.6------------
1983-07-29 18.5 23.3 12.6- 81.5- 1.0 0.3---- 0.4------------
1983-07-28 20.9 26.1 16.6- 82.8- 5.3 1.0---- 0.0------------
1983-07-27 21.4 27.8 13.8- 82.8- 2.0 0.0---- 0.0------------
1983-07-26 18.6 24.6 13.8- 89.0- 7.0 2.0---- 0.0------------
1983-07-25 14.4 19.9 11.8- 90.3- 5.3 2.7---- 1.5------------
1983-07-24 14.9 17.3 13.2- 95.3- 8.0 0.0---- 1.8------------
1983-07-23 14.2 19.6 11.3- 90.3- 8.0 1.0---- 8.2------------
1983-07-22 12.8 15.1 9.5- 81.0- 8.0 2.0---- 5.3------------
1983-07-21 11.8 16.1 8.5- 80.0- 8.0 2.0---- 0.0------------
1983-07-20 18.6 25.3 12.5- 88.0- 6.0 0.0---- 0.0------------
1983-07-19 22.0 28.9 14.2- 74.3- 1.7 0.3---- 0.0------------
1983-07-18 20.1 27.3 13.8- 78.5- 0.7 0.0---- 0.0------------
1983-07-17 19.5 25.1 15.2- 84.5- 2.3 0.7---- 2.5------------
1983-07-16 19.1 26.6 10.2- 73.5- 1.0 0.7---- 0.0------------
1983-07-15 18.4 23.1 15.5- 76.0- 4.0 1.3---- 0.0------------
1983-07-14 16.3 19.1 14.5- 95.0- 8.0 0.0---- 8.7------------
1983-07-13 16.8 19.3 14.6- 91.8- 7.7 0.0---- 7.4------------
1983-07-12 16.5 20.3 13.8- 91.8- 7.0 0.7---- 4.4------------
1983-07-11 17.6 21.3 14.5- 88.3- 7.0 0.0---- 4.1------------
1983-07-10 18.8 22.6 12.5- 79.3- 4.3 0.0---- 3.1------------
1983-07-09 18.4 25.3 10.0- 79.3- 0.7 0.0---- 0.0------------
1983-07-08 18.4 24.6 9.5- 69.3- 0.7 0.3---- 0.0------------
1983-07-07 19.3 25.6 11.8- 71.5- 0.0 0.3---- 0.0------------
1983-07-06 19.2 25.9 12.0- 73.3- 0.0 0.0---- 0.0------------
1983-07-05 18.4 25.5 9.8- 78.8- 3.0 0.7---- 0.0------------
1983-07-04 17.5 24.6 8.8- 87.8- 1.3 0.7---- 0.0------------
1983-07-03 18.4 22.9 14.8- 87.0- 4.0 0.3---- 0.0------------
1983-07-02 17.1 21.6 13.2- 92.8- 5.0 0.0---- 13.2------------
1983-07-01 18.8 25.5 11.0- 76.5- 3.0 0.3---- 0.0------------
1983-06-30 14.8 20.6 6.4- 80.0- 2.7 0.0---- 0.0------------
1983-06-29 14.9 19.6 12.0- 78.0- 5.0 0.0---- 0.0------------
1983-06-28 17.2 22.3 15.2- 89.8- 8.0 0.3---- 10.8------------
1983-06-27 19.8 25.8 12.0- 77.8- 5.0 1.0---- 0.0------------
1983-06-26 17.9 22.1 13.2- 81.8- 7.3 0.0---- 6.8------------
1983-06-25 20.4 24.9 11.6- 61.3- 0.3 1.3---- 0.0------------
1983-06-24 16.4 24.3 6.0- 66.3- 0.0 0.3---- 0.0------------
1983-06-23 14.4 19.6 7.0- 61.0- 0.0 1.3---- 0.0------------
1983-06-22 14.9 20.6 11.6- 60.0- 0.0 1.7---- 0.0------------
1983-06-21 18.0 23.3 13.2- 78.8- 6.0 0.3---- 0.0------------
1983-06-20 16.7 20.9 14.0- 93.3- 7.7 0.0---- 0.0------------
1983-06-19 15.8 20.7 11.2- 94.3- 7.3 1.0---- 11.4------------
1983-06-18 12.0 13.3 10.5- 96.3- 8.0 2.3---- 31.8------------
1983-06-17 11.6 13.1 10.0- 85.0- 8.0 0.7---- 7.2------------
1983-06-16 11.6 15.7 10.0- 95.0- 8.0 2.7---- 9.0------------
464.5 ms

 

Źródłem pochodzenia danych jest Instytut Meteorologii i Gospodarki Wodnej – Państwowy Instytut Badawczy. Dane Instytutu Meteorologii i Gospodarki Wodnej – Państwowego Instytutu Badawczego zostały przetworzone.

Dane źródłowe można odnaleźć na stronie https://dane.imgw.pl